Time;durP1;ratioP1;P1;durP2;ratioP2;P2;SDS_P1;SDS_P2;PMS_P1;PMS_P2;Temp;Humidity;BMP_temperature;BMP_pressure;BME280_temperature;BME280_humidity;BME280_pressure;Samples;Min_cycle;Max_cycle;Signal;HPM_P1;HPM_P2
2021/10/13 00:02:25;;;;;;;2.87;1.07;;;10.10;99.90;;;;;;5096395;28;20467;-61
2021/10/13 00:04:54;;;;;;;1.77;0.90;;;10.10;99.90;;;;;;5096364;28;20449;-60
2021/10/13 00:10:10;;;;;;;1.60;0.80;;;9.80;99.90;;;;;;5095286;28;20492;-61
2021/10/13 00:12:42;;;;;;;1.40;0.80;;;9.80;99.90;;;;;;5096102;28;20452;-60
2021/10/13 00:15:12;;;;;;;1.73;0.90;;;9.70;99.90;;;;;;5097422;28;20433;-61
2021/10/13 00:17:42;;;;;;;2.00;1.10;;;9.60;99.90;;;;;;5097600;28;20460;-60
2021/10/13 00:20:10;;;;;;;2.60;1.03;;;9.60;99.90;;;;;;5096135;28;20446;-60
2021/10/13 00:22:37;;;;;;;2.13;1.00;;;9.60;99.90;;;;;;5096919;28;20457;-61
2021/10/13 00:25:09;;;;;;;2.00;0.80;;;9.70;99.90;;;;;;5095783;28;20872;-60
2021/10/13 00:27:37;;;;;;;2.10;1.00;;;9.70;99.90;;;;;;5095198;28;20897;-60
2021/10/13 00:30:10;;;;;;;1.70;0.90;;;9.60;99.90;;;;;;5095211;28;20487;-60
2021/10/13 00:32:39;;;;;;;2.57;0.90;;;9.70;99.90;;;;;;5094386;28;20454;-60
2021/10/13 00:35:10;;;;;;;2.10;1.17;;;9.70;99.90;;;;;;5094797;28;20445;-60
2021/10/13 00:37:37;;;;;;;2.13;1.07;;;9.70;99.90;;;;;;5094111;28;20458;-60
2021/10/13 00:40:09;;;;;;;1.93;1.07;;;9.60;99.90;;;;;;5095833;28;20732;-60
2021/10/13 00:42:37;;;;;;;3.83;0.90;;;9.60;99.90;;;;;;5096016;28;20493;-61
2021/10/13 00:45:06;;;;;;;1.23;0.80;;;9.40;99.90;;;;;;5097207;28;20442;-60
2021/10/13 00:47:33;;;;;;;3.13;1.40;;;9.40;99.90;;;;;;5079165;28;20450;-60
2021/10/13 00:50:01;;;;;;;1.90;1.00;;;9.50;99.90;;;;;;5096076;28;20481;-60
2021/10/13 00:52:30;;;;;;;1.60;0.80;;;9.30;99.90;;;;;;5096518;28;20476;-62
2021/10/13 00:55:01;;;;;;;2.00;1.17;;;9.30;99.90;;;;;;5096076;28;20896;-61
2021/10/13 00:57:30;;;;;;;3.00;1.10;;;9.40;99.90;;;;;;5095846;28;20601;-61
2021/10/13 00:59:58;;;;;;;2.80;1.00;;;9.40;99.90;;;;;;5096381;28;20441;-61
2021/10/13 01:02:31;;;;;;;2.43;1.00;;;9.30;99.90;;;;;;5094664;28;20908;-61
2021/10/13 01:05:20;;;;;;;1.53;0.90;;;9.10;99.90;;;;;;5095400;28;20444;-61
2021/10/13 01:07:57;;;;;;;2.20;1.10;;;9.10;99.90;;;;;;5095480;28;20488;-61
2021/10/13 01:10:48;;;;;;;2.17;1.03;;;9.20;99.90;;;;;;5095146;28;20481;-61
2021/10/13 01:13:28;;;;;;;4.33;1.30;;;9.10;99.90;;;;;;5094499;28;20704;-61
2021/10/13 01:16:05;;;;;;;2.00;1.00;;;9.10;99.90;;;;;;5094282;28;20895;-61
2021/10/13 01:18:42;;;;;;;2.77;1.10;;;9.10;99.90;;;;;;5095689;28;20748;-61
2021/10/13 01:21:23;;;;;;;3.63;1.20;;;9.20;99.90;;;;;;5095159;28;20856;-61
2021/10/13 01:24:10;;;;;;;2.53;1.10;;;9.30;99.90;;;;;;5095517;28;20739;-61
2021/10/13 01:26:44;;;;;;;1.67;1.10;;;9.40;99.90;;;;;;5094258;28;20460;-61
2021/10/13 01:29:18;;;;;;;3.03;1.20;;;9.50;99.90;;;;;;5092781;28;20484;-61
2021/10/13 01:31:50;;;;;;;2.03;1.00;;;9.50;99.90;;;;;;5094786;28;20464;-61
2021/10/13 01:34:23;;;;;;;3.33;1.10;;;9.60;99.90;;;;;;5094755;28;20440;-61
2021/10/13 01:36:59;;;;;;;1.57;0.87;;;9.60;99.90;;;;;;5095386;28;20449;-61
2021/10/13 01:39:27;;;;;;;1.80;0.90;;;9.70;99.90;;;;;;5093306;28;20445;-62
2021/10/13 01:41:57;;;;;;;2.00;1.10;;;9.70;99.90;;;;;;5091928;28;20458;-61
2021/10/13 01:44:29;;;;;;;2.43;0.90;;;9.80;99.90;;;;;;5091643;28;20449;-61
2021/10/13 01:46:56;;;;;;;2.33;1.00;;;9.70;99.90;;;;;;5090237;28;20474;-61
2021/10/13 01:49:24;;;;;;;4.00;0.97;;;9.70;99.90;;;;;;5090327;28;20477;-61
2021/10/13 01:51:53;;;;;;;1.23;0.70;;;9.60;99.90;;;;;;5092599;28;20712;-61
2021/10/13 01:54:22;;;;;;;1.33;0.80;;;9.50;99.90;;;;;;5093691;28;20433;-62
2021/10/13 01:56:50;;;;;;;1.73;0.70;;;9.40;99.90;;;;;;5093665;28;20527;-62
2021/10/13 01:59:22;;;;;;;1.43;0.80;;;9.50;99.90;;;;;;5092833;28;20437;-62
2021/10/13 02:01:53;;;;;;;0.97;0.67;;;9.50;99.90;;;;;;5093451;28;20445;-62
2021/10/13 02:04:22;;;;;;;2.63;0.80;;;9.50;99.90;;;;;;5094520;28;20524;-61
2021/10/13 02:06:51;;;;;;;2.17;0.80;;;9.40;99.90;;;;;;5094840;28;20567;-61
2021/10/13 02:09:22;;;;;;;1.97;1.00;;;9.20;99.90;;;;;;5094389;28;20932;-62
2021/10/13 02:11:54;;;;;;;2.33;1.13;;;9.20;99.90;;;;;;5093203;28;20468;-62
2021/10/13 02:14:22;;;;;;;1.97;0.90;;;9.30;99.90;;;;;;5093875;28;20450;-61
2021/10/13 02:16:54;;;;;;;1.50;0.90;;;9.50;99.90;;;;;;5092369;28;20872;-61
2021/10/13 02:19:26;;;;;;;1.50;0.90;;;9.50;99.90;;;;;;5092461;28;20469;-62
2021/10/13 02:21:55;;;;;;;1.87;0.83;;;9.50;99.90;;;;;;5092213;28;20495;-62
2021/10/13 02:24:26;;;;;;;2.23;1.00;;;9.50;99.90;;;;;;5092818;28;20517;-62
2021/10/13 02:26:57;;;;;;;1.33;0.87;;;9.60;99.90;;;;;;5093387;28;20453;-62
2021/10/13 02:29:24;;;;;;;1.67;0.80;;;9.60;99.90;;;;;;5093616;28;20549;-62
2021/10/13 02:31:53;;;;;;;1.77;0.90;;;9.50;99.90;;;;;;5095036;28;20457;-62
2021/10/13 02:34:21;;;;;;;2.90;0.80;;;9.40;99.90;;;;;;5094088;28;20450;-61
2021/10/13 02:36:48;;;;;;;2.07;1.10;;;9.10;99.90;;;;;;5093216;28;20459;-61
2021/10/13 02:39:16;;;;;;;2.37;0.90;;;9.10;99.90;;;;;;5092237;28;20873;-61
2021/10/13 02:41:43;;;;;;;2.17;1.10;;;9.20;99.90;;;;;;5092242;28;20856;-61
2021/10/13 02:44:10;;;;;;;1.93;0.87;;;9.40;99.90;;;;;;5091843;28;20507;-61
2021/10/13 02:46:47;;;;;;;1.20;0.80;;;9.30;99.90;;;;;;5091128;28;20755;-61
2021/10/13 02:49:30;;;;;;;2.13;1.50;;;9.30;99.90;;;;;;5091469;28;20794;-61
2021/10/13 02:52:07;;;;;;;1.80;1.03;;;9.40;99.90;;;;;;5091907;28;20462;-61
2021/10/13 02:54:45;;;;;;;1.47;0.90;;;9.50;99.90;;;;;;5093277;28;20917;-61
2021/10/13 02:57:14;;;;;;;1.73;1.00;;;9.60;99.90;;;;;;5093418;28;20457;-61
2021/10/13 02:59:44;;;;;;;2.00;1.00;;;9.60;99.90;;;;;;5094816;28;20448;-61
2021/10/13 03:02:14;;;;;;;7.47;0.97;;;9.50;99.90;;;;;;5095119;28;20844;-61
2021/10/13 03:04:50;;;;;;;1.70;1.10;;;9.20;99.90;;;;;;5095888;28;20809;-61
2021/10/13 03:07:21;;;;;;;2.17;1.10;;;9.20;99.90;;;;;;5095581;28;20489;-61
2021/10/13 03:09:54;;;;;;;11.90;1.07;;;9.10;99.90;;;;;;5095026;28;20481;-61
2021/10/13 03:12:22;;;;;;;2.27;0.93;;;8.90;99.90;;;;;;5095703;28;20734;-61
2021/10/13 03:14:54;;;;;;;3.70;1.27;;;8.90;99.90;;;;;;5093828;28;20441;-61
2021/10/13 03:17:23;;;;;;;5.07;0.97;;;8.90;99.90;;;;;;5093884;28;20449;-60
2021/10/13 03:19:53;;;;;;;2.17;1.10;;;8.90;99.90;;;;;;5093843;28;20445;-61
2021/10/13 03:22:24;;;;;;;3.60;1.10;;;8.90;99.90;;;;;;5094163;28;20738;-60
2021/10/13 03:24:51;;;;;;;2.27;1.20;;;9.00;99.90;;;;;;5093574;28;20787;-61
2021/10/13 03:27:18;;;;;;;4.17;1.10;;;9.10;99.90;;;;;;5093835;28;20572;-61
2021/10/13 03:29:46;;;;;;;3.93;1.50;;;9.10;99.90;;;;;;5097800;28;20477;-61
2021/10/13 03:32:18;;;;;;;3.90;1.40;;;9.00;99.90;;;;;;5097878;28;20912;-61
2021/10/13 03:34:45;;;;;;;3.33;1.10;;;8.90;99.90;;;;;;5097636;28;20449;-61
2021/10/13 03:37:16;;;;;;;1.93;1.07;;;8.80;99.90;;;;;;5097288;28;20461;-61
2021/10/13 03:39:43;;;;;;;2.33;1.00;;;8.90;99.90;;;;;;5096779;28;20442;-61
2021/10/13 03:42:11;;;;;;;1.87;0.90;;;8.80;99.90;;;;;;5096972;28;20912;-61
2021/10/13 03:44:38;;;;;;;3.53;1.37;;;8.90;99.90;;;;;;5097380;28;20841;-61
2021/10/13 03:47:06;;;;;;;2.90;1.37;;;8.90;99.90;;;;;;5096840;28;20634;-61
2021/10/13 03:49:33;;;;;;;2.80;1.50;;;8.80;99.90;;;;;;5096723;28;20442;-61
2021/10/13 03:52:00;;;;;;;2.00;0.97;;;8.90;99.90;;;;;;5096224;28;20548;-61
2021/10/13 03:54:29;;;;;;;1.93;0.80;;;8.90;99.90;;;;;;5097208;28;20451;-61
2021/10/13 03:56:56;;;;;;;1.83;1.00;;;8.90;99.90;;;;;;5096617;28;20488;-61
2021/10/13 03:59:23;;;;;;;2.53;1.00;;;9.00;99.90;;;;;;5097578;28;20690;-62
2021/10/13 04:01:50;;;;;;;2.50;1.13;;;8.90;99.90;;;;;;5098053;28;20969;-62
2021/10/13 04:04:17;;;;;;;2.60;0.90;;;8.90;99.90;;;;;;5097070;28;20445;-62
2021/10/13 04:06:45;;;;;;;2.90;1.20;;;9.10;99.90;;;;;;5096454;28;20743;-61
2021/10/13 04:09:12;;;;;;;1.97;1.00;;;8.90;99.90;;;;;;5095312;28;20819;-61
2021/10/13 04:11:40;;;;;;;2.60;0.90;;;8.80;99.90;;;;;;5094352;28;20481;-62
2021/10/13 04:14:08;;;;;;;3.33;1.10;;;8.80;99.90;;;;;;5094291;28;20446;-62
2021/10/13 04:16:35;;;;;;;4.23;1.10;;;9.00;99.90;;;;;;5094782;28;20517;-61
2021/10/13 04:19:02;;;;;;;3.80;0.90;;;9.00;99.90;;;;;;5094881;28;20446;-61
2021/10/13 04:21:29;;;;;;;2.60;1.30;;;9.10;99.90;;;;;;5095790;28;20441;-61
2021/10/13 04:23:56;;;;;;;2.00;1.00;;;9.20;99.90;;;;;;5096683;28;20500;-63
2021/10/13 04:26:24;;;;;;;2.80;1.10;;;9.10;99.90;;;;;;5095296;28;20460;-62
2021/10/13 04:28:52;;;;;;;2.90;1.17;;;9.00;99.90;;;;;;5096131;28;20515;-62
2021/10/13 04:31:19;;;;;;;1.97;0.87;;;9.10;99.90;;;;;;5097824;28;20481;-62
2021/10/13 04:33:47;;;;;;;2.03;0.90;;;9.10;99.90;;;;;;5098018;28;20767;-63
2021/10/13 04:36:14;;;;;;;1.70;0.90;;;9.20;99.90;;;;;;5097928;28;20450;-63
2021/10/13 04:38:41;;;;;;;3.93;0.90;;;9.10;99.90;;;;;;5097056;28;20452;-63
2021/10/13 04:41:08;;;;;;;3.23;1.10;;;9.20;99.90;;;;;;5097311;28;20732;-62
2021/10/13 04:43:35;;;;;;;4.17;1.30;;;9.20;99.90;;;;;;5095870;28;20468;-62
2021/10/13 04:46:04;;;;;;;5.83;1.47;;;9.10;99.90;;;;;;5095388;28;20442;-62
2021/10/13 04:48:31;;;;;;;2.10;1.40;;;9.10;99.90;;;;;;5096269;28;20960;-63
2021/10/13 04:50:58;;;;;;;3.17;1.20;;;9.20;99.90;;;;;;5096648;28;20857;-63
2021/10/13 04:53:26;;;;;;;5.93;1.13;;;9.20;99.90;;;;;;5096694;28;20936;-63
2021/10/13 04:55:53;;;;;;;1.93;0.87;;;9.00;99.90;;;;;;5096031;28;20473;-62
2021/10/13 04:58:20;;;;;;;2.60;1.37;;;9.00;99.90;;;;;;5093640;28;20460;-62
2021/10/13 05:00:48;;;;;;;2.10;1.03;;;9.10;99.90;;;;;;5093454;28;20446;-63
2021/10/13 05:03:16;;;;;;;3.00;0.90;;;9.20;99.90;;;;;;5093484;28;20460;-62
2021/10/13 05:05:43;;;;;;;3.10;1.20;;;9.30;99.90;;;;;;5093056;28;20451;-62
2021/10/13 05:08:11;;;;;;;1.97;1.10;;;9.10;99.90;;;;;;5075890;28;20472;-62
2021/10/13 05:10:38;;;;;;;1.40;0.90;;;8.90;99.90;;;;;;5095868;28;20971;-62
2021/10/13 05:13:06;;;;;;;1.60;0.83;;;9.20;99.90;;;;;;5095478;28;20462;-62
2021/10/13 05:15:33;;;;;;;3.33;0.90;;;9.30;99.90;;;;;;5096069;28;20786;-62
2021/10/13 05:18:00;;;;;;;3.83;0.97;;;9.10;99.90;;;;;;5093130;28;20449;-61
2021/10/13 05:20:29;;;;;;;2.13;1.20;;;9.20;99.90;;;;;;5093822;28;20432;-62
2021/10/13 05:22:56;;;;;;;1.10;0.60;;;9.10;99.90;;;;;;5091909;28;20456;-61
2021/10/13 05:25:24;;;;;;;2.47;1.03;;;9.30;99.90;;;;;;5090049;28;20448;-62
2021/10/13 05:27:51;;;;;;;3.87;1.10;;;9.10;99.90;;;;;;5088702;28;20558;-62
2021/10/13 05:30:18;;;;;;;2.30;0.97;;;8.80;99.90;;;;;;5086939;28;20480;-62
2021/10/13 05:32:45;;;;;;;1.90;1.10;;;8.90;99.90;;;;;;5089789;28;20449;-63
2021/10/13 05:35:12;;;;;;;5.70;0.90;;;9.10;99.90;;;;;;5089440;28;20437;-61
2021/10/13 05:37:41;;;;;;;1.80;1.00;;;9.40;99.90;;;;;;5091902;28;20792;-62
2021/10/13 05:40:11;;;;;;;1.50;0.90;;;9.80;99.90;;;;;;5092670;28;21003;-62
2021/10/13 05:42:38;;;;;;;1.83;1.00;;;9.80;99.90;;;;;;5091781;28;20459;-62
2021/10/13 05:45:09;;;;;;;1.90;0.80;;;9.50;99.90;;;;;;5092293;28;20976;-61
2021/10/13 05:47:36;;;;;;;1.40;0.80;;;9.20;99.90;;;;;;5093528;28;20454;-62
2021/10/13 05:50:04;;;;;;;1.83;0.80;;;8.90;99.90;;;;;;5093578;28;20442;-62
2021/10/13 05:52:32;;;;;;;1.53;0.77;;;8.60;99.90;;;;;;5094239;28;20457;-62
2021/10/13 05:55:01;;;;;;;1.20;0.70;;;8.90;99.90;;;;;;5091818;28;20884;-62
2021/10/13 05:57:28;;;;;;;1.73;1.10;;;9.30;99.90;;;;;;5092355;28;20838;-62
2021/10/13 05:59:58;;;;;;;2.40;1.03;;;9.50;99.90;;;;;;5091040;28;20538;-62
2021/10/13 06:02:25;;;;;;;4.40;0.87;;;9.60;99.90;;;;;;5092315;28;20504;-62
2021/10/13 06:04:53;;;;;;;1.93;0.90;;;9.50;99.90;;;;;;5091141;28;20539;-62
2021/10/13 06:07:20;;;;;;;1.67;0.80;;;9.20;99.90;;;;;;5091024;28;20477;-62
2021/10/13 06:09:47;;;;;;;2.50;0.80;;;8.90;99.90;;;;;;5089038;28;20797;-62
2021/10/13 06:12:16;;;;;;;1.83;0.90;;;8.70;99.90;;;;;;5088547;28;20593;-62
2021/10/13 06:14:43;;;;;;;2.53;1.47;;;8.60;99.90;;;;;;5089882;28;20931;-62
2021/10/13 06:17:10;;;;;;;2.77;0.87;;;8.60;99.90;;;;;;5090253;28;20813;-62
2021/10/13 06:19:38;;;;;;;5.30;0.90;;;8.90;99.90;;;;;;5086196;28;20456;-62
2021/10/13 06:22:05;;;;;;;1.40;0.87;;;9.00;99.90;;;;;;5090538;28;20926;-61
2021/10/13 06:24:32;;;;;;;4.60;1.00;;;9.00;99.90;;;;;;5089577;28;20501;-62
2021/10/13 06:26:59;;;;;;;2.67;0.97;;;9.30;99.90;;;;;;5091944;28;20463;-61
2021/10/13 06:29:28;;;;;;;1.93;1.20;;;9.50;99.90;;;;;;5091892;28;20445;-62
2021/10/13 06:31:55;;;;;;;2.23;1.23;;;9.50;99.90;;;;;;5090884;28;20586;-62
2021/10/13 06:34:22;;;;;;;2.40;0.97;;;9.20;99.90;;;;;;5091017;28;20887;-61
2021/10/13 06:36:50;;;;;;;6.50;1.27;;;9.20;99.90;;;;;;5091320;28;20492;-61
2021/10/13 06:39:17;;;;;;;6.57;1.00;;;9.40;99.90;;;;;;5092837;28;20451;-61
2021/10/13 06:41:44;;;;;;;4.13;0.97;;;9.40;99.90;;;;;;5091605;28;20694;-61
2021/10/13 06:44:12;;;;;;;5.53;1.00;;;9.80;99.90;;;;;;5090600;28;20900;-66
2021/10/13 06:46:41;;;;;;;4.33;1.00;;;9.90;99.90;;;;;;5091975;28;20457;-66
2021/10/13 06:49:09;;;;;;;1.30;0.90;;;10.10;99.90;;;;;;5090730;28;20456;-62
2021/10/13 06:51:36;;;;;;;2.20;0.87;;;10.50;99.90;;;;;;5090741;28;20801;-61
2021/10/13 06:54:03;;;;;;;3.80;1.10;;;10.50;99.90;;;;;;5089567;28;20473;-61
2021/10/13 06:56:31;;;;;;;4.77;1.10;;;10.50;99.90;;;;;;5089452;28;20449;-60
2021/10/13 06:58:58;;;;;;;3.00;1.13;;;10.30;99.90;;;;;;5090834;28;20969;-61
2021/10/13 07:01:25;;;;;;;2.87;0.90;;;9.90;99.90;;;;;;5088144;28;20918;-61
2021/10/13 07:03:54;;;;;;;3.30;1.00;;;9.90;99.90;;;;;;5092053;28;20679;-62
2021/10/13 07:06:32;;;;;;;2.00;0.97;;;10.00;99.90;;;;;;5092373;28;20811;-60
2021/10/13 07:09:00;;;;;;;2.00;1.10;;;9.60;99.90;;;;;;5092812;28;20817;-62
2021/10/13 07:11:28;;;;;;;2.87;1.00;;;9.40;99.90;;;;;;5093401;28;20784;-61
2021/10/13 07:13:55;;;;;;;1.70;0.90;;;9.30;99.90;;;;;;5091547;28;20442;-63
2021/10/13 07:16:23;;;;;;;1.80;0.83;;;9.20;99.90;;;;;;5091800;28;20441;-62
2021/10/13 07:18:57;;;;;;;1.20;0.73;;;9.20;99.90;;;;;;5093455;28;20481;-63
2021/10/13 07:21:25;;;;;;;1.60;0.77;;;9.30;99.90;;;;;;5094065;28;20436;-62
2021/10/13 07:24:01;;;;;;;1.33;0.73;;;9.20;99.90;;;;;;5092508;28;20449;-63
2021/10/13 07:26:29;;;;;;;1.40;0.77;;;9.50;99.90;;;;;;5093685;28;20533;-62
2021/10/13 07:28:57;;;;;;;1.20;0.70;;;9.30;99.90;;;;;;5091861;28;20446;-63
2021/10/13 07:31:25;;;;;;;2.23;0.67;;;9.00;99.90;;;;;;5091870;28;20477;-62
2021/10/13 07:33:52;;;;;;;1.10;0.53;;;9.10;99.90;;;;;;5092077;28;20481;-62
2021/10/13 07:36:21;;;;;;;1.50;0.77;;;9.40;99.90;;;;;;5090226;28;20565;-62
2021/10/13 07:38:50;;;;;;;1.40;0.70;;;9.30;99.90;;;;;;5090433;28;20464;-63
2021/10/13 07:41:19;;;;;;;1.57;0.60;;;9.60;99.90;;;;;;5090532;28;20682;-62
2021/10/13 07:43:46;;;;;;;3.63;1.10;;;9.70;99.90;;;;;;5092136;28;20537;-63
2021/10/13 07:46:14;;;;;;;2.60;0.90;;;10.00;99.90;;;;;;5091393;28;20982;-62
2021/10/13 07:48:42;;;;;;;1.73;0.77;;;10.20;99.90;;;;;;5092622;28;20536;-62
2021/10/13 07:51:11;;;;;;;4.97;0.97;;;10.40;99.90;;;;;;5093262;28;20481;-62
2021/10/13 07:53:44;;;;;;;1.40;0.77;;;10.30;99.90;;;;;;5076632;28;20775;-63
2021/10/13 07:56:12;;;;;;;1.87;0.80;;;10.20;99.90;;;;;;5094141;28;21067;-62
2021/10/13 07:58:39;;;;;;;2.90;0.97;;;10.00;99.90;;;;;;5093584;28;20450;-62
2021/10/13 08:01:10;;;;;;;2.80;0.80;;;9.90;99.90;;;;;;5094325;28;20914;-62
2021/10/13 08:03:39;;;;;;;2.70;0.97;;;9.90;99.90;;;;;;5093242;28;20784;-62
2021/10/13 08:06:07;;;;;;;1.77;1.00;;;10.20;99.90;;;;;;5096092;28;20534;-62
2021/10/13 08:08:35;;;;;;;1.50;1.00;;;10.50;99.90;;;;;;5095698;28;20919;-61
2021/10/13 08:11:04;;;;;;;1.50;0.80;;;10.70;99.90;;;;;;5095695;28;20719;-61
2021/10/13 08:13:35;;;;;;;1.37;0.87;;;10.80;99.90;;;;;;5095298;28;20908;-61
2021/10/13 08:16:03;;;;;;;1.30;0.73;;;11.10;99.90;;;;;;5096480;28;20524;-62
2021/10/13 08:18:32;;;;;;;2.80;0.83;;;11.40;99.90;;;;;;5092406;28;20507;-62
2021/10/13 08:21:00;;;;;;;1.50;0.93;;;11.50;99.90;;;;;;5092635;28;20445;-62
2021/10/13 08:23:28;;;;;;;1.20;0.80;;;11.50;99.90;;;;;;5091336;28;20454;-62
2021/10/13 08:26:00;;;;;;;1.50;0.80;;;11.20;99.90;;;;;;5091852;28;20804;-62
2021/10/13 08:28:30;;;;;;;2.20;0.70;;;11.30;99.90;;;;;;5089178;28;20450;-62
2021/10/13 08:31:01;;;;;;;3.83;0.90;;;11.40;99.90;;;;;;5093328;28;20909;-62
2021/10/13 08:33:29;;;;;;;3.10;1.00;;;11.50;99.90;;;;;;5093974;28;20457;-62
2021/10/13 08:35:56;;;;;;;3.67;1.23;;;11.20;99.90;;;;;;5095150;28;20446;-62
2021/10/13 08:38:25;;;;;;;3.23;1.10;;;11.30;99.90;;;;;;5092843;28;20453;-62
2021/10/13 08:40:52;;;;;;;2.67;1.23;;;11.50;99.90;;;;;;5092352;28;20550;-63
2021/10/13 08:43:22;;;;;;;4.10;1.60;;;11.70;99.90;;;;;;5091702;28;20450;-61
2021/10/13 08:45:52;;;;;;;2.60;1.10;;;11.70;99.90;;;;;;5089271;28;20778;-62
2021/10/13 08:48:27;;;;;;;2.10;1.03;;;11.80;99.90;;;;;;5088064;28;20466;-61
2021/10/13 08:50:56;;;;;;;4.97;1.10;;;11.70;99.90;;;;;;5086990;28;20718;-62
2021/10/13 08:53:25;;;;;;;1.70;1.10;;;11.60;99.90;;;;;;5087757;28;20500;-62
2021/10/13 08:55:53;;;;;;;2.83;1.37;;;11.60;99.90;;;;;;5088723;28;20454;-62
2021/10/13 08:58:23;;;;;;;3.23;1.00;;;11.80;99.90;;;;;;5088080;28;20552;-62
2021/10/13 09:01:10;;;;;;;2.70;1.40;;;11.70;99.90;;;;;;5092650;28;20541;-62
2021/10/13 09:03:38;;;;;;;3.90;2.37;;;11.60;99.90;;;;;;5090322;28;20453;-64
2021/10/13 09:06:21;;;;;;;4.87;1.80;;;11.40;99.90;;;;;;5089363;28;20603;-62
2021/10/13 09:08:56;;;;;;;3.30;1.40;;;11.30;99.90;;;;;;5084251;28;20445;-63
2021/10/13 09:11:42;;;;;;;4.60;1.37;;;11.50;99.90;;;;;;5088600;28;20437;-62
2021/10/13 09:14:19;;;;;;;2.23;1.20;;;12.00;99.90;;;;;;5090746;28;20488;-61
2021/10/13 09:16:54;;;;;;;2.50;1.07;;;12.20;99.90;;;;;;5089167;28;20449;-62
2021/10/13 09:19:23;;;;;;;4.63;1.50;;;12.40;99.90;;;;;;5090561;28;20478;-62
2021/10/13 09:21:52;;;;;;;1.37;0.80;;;12.50;99.90;;;;;;5090541;28;20529;-62
2021/10/13 09:24:20;;;;;;;2.73;1.10;;;12.50;99.90;;;;;;5086587;28;20535;-61
2021/10/13 09:26:48;;;;;;;1.63;0.80;;;12.40;99.90;;;;;;5087228;28;20445;-60
2021/10/13 09:29:16;;;;;;;1.50;0.63;;;12.40;99.90;;;;;;5086152;28;20560;-60
2021/10/13 09:31:44;;;;;;;1.43;0.80;;;12.40;99.90;;;;;;5089637;28;21142;-60
2021/10/13 09:34:13;;;;;;;1.17;0.60;;;12.30;99.90;;;;;;5090658;28;20851;-60
2021/10/13 09:36:44;;;;;;;1.93;0.67;;;12.30;99.90;;;;;;5092964;28;20868;-59
2021/10/13 09:39:16;;;;;;;3.13;0.70;;;12.30;99.90;;;;;;5089367;28;20880;-60
2021/10/13 09:42:12;;;;;;;3.63;0.70;;;12.10;99.90;;;;;;5089804;28;20759;-61
2021/10/13 09:44:43;;;;;;;1.13;0.60;;;11.80;99.90;;;;;;5046740;28;20461;-61
2021/10/13 09:47:12;;;;;;;1.00;0.60;;;11.80;99.90;;;;;;5089958;28;20445;-61
2021/10/13 09:49:43;;;;;;;5.23;0.70;;;11.90;99.90;;;;;;5090438;28;20540;-60
2021/10/13 09:52:13;;;;;;;1.13;0.60;;;12.10;99.90;;;;;;5091359;28;20623;-60
2021/10/13 09:54:43;;;;;;;1.87;0.63;;;12.00;99.90;;;;;;5082638;28;20457;-60
2021/10/13 09:57:18;;;;;;;2.53;0.70;;;12.00;99.90;;;;;;5087860;28;20529;-60
2021/10/13 10:00:08;;;;;;;2.63;0.77;;;12.10;99.90;;;;;;5090480;28;20453;-60
2021/10/13 10:02:39;;;;;;;1.83;0.90;;;12.20;99.90;;;;;;5088360;28;20864;-59
2021/10/13 10:05:12;;;;;;;1.47;0.90;;;12.40;99.90;;;;;;5087247;28;20799;-58
2021/10/13 10:07:46;;;;;;;1.90;0.63;;;12.50;99.90;;;;;;5084597;28;20601;-60
2021/10/13 10:10:17;;;;;;;2.60;0.70;;;12.80;99.90;;;;;;5087242;28;20477;-60
2021/10/13 10:13:03;;;;;;;0.97;0.60;;;13.20;99.90;;;;;;5088538;28;20577;-60
2021/10/13 10:15:40;;;;;;;0.80;0.50;;;13.40;99.90;;;;;;5083393;28;20469;-60
2021/10/13 10:18:24;;;;;;;1.20;0.60;;;13.50;99.90;;;;;;5087388;28;20516;-60
2021/10/13 10:20:54;;;;;;;0.70;0.50;;;13.50;99.90;;;;;;5085204;28;20446;-60
2021/10/13 10:23:33;;;;;;;1.57;0.60;;;13.30;99.90;;;;;;5087125;28;20763;-60
2021/10/13 10:26:22;;;;;;;1.80;0.57;;;13.30;99.90;;;;;;5083240;28;20812;-60
2021/10/13 10:28:57;;;;;;;1.07;0.70;;;13.40;99.90;;;;;;5084408;28;20442;-60
2021/10/13 10:31:40;;;;;;;1.00;0.77;;;12.80;99.90;;;;;;5089244;28;20631;-61
2021/10/13 10:34:16;;;;;;;5.63;0.80;;;12.90;99.90;;;;;;5087230;28;20954;-61
2021/10/13 10:37:17;;;;;;;1.67;0.70;;;13.10;99.90;;;;;;5092153;28;20855;-61
2021/10/13 10:40:10;;;;;;;1.60;0.80;;;13.00;99.90;;;;;;5076565;28;20472;-60
2021/10/13 10:43:02;;;;;;;2.43;1.03;;;12.90;99.90;;;;;;5093985;28;20731;-60
2021/10/13 10:45:58;;;;;;;1.27;0.67;;;12.90;99.90;;;;;;5086738;28;20457;-60
2021/10/13 10:48:27;;;;;;;8.13;2.83;;;13.00;99.90;;;;;;5090992;28;20445;-60
2021/10/13 10:51:04;;;;;;;5.70;1.00;;;12.90;99.90;;;;;;5092665;28;20796;-60
2021/10/13 10:53:36;;;;;;;1.40;0.80;;;12.80;99.90;;;;;;5092567;28;20473;-60
2021/10/13 10:56:31;;;;;;;3.57;0.97;;;12.40;99.90;;;;;;5092945;28;20456;-60
2021/10/13 10:59:01;;;;;;;2.17;1.20;;;12.20;99.90;;;;;;5073447;28;20450;-61
2021/10/13 11:01:29;;;;;;;4.97;1.60;;;12.20;99.90;;;;;;5089536;28;20444;-61
2021/10/13 11:03:58;;;;;;;5.53;1.90;;;11.90;99.90;;;;;;5089592;28;20756;-61
2021/10/13 11:06:35;;;;;;;5.70;1.20;;;11.70;99.90;;;;;;5090962;28;20590;-61
2021/10/13 11:09:16;;;;;;;1.43;0.80;;;11.70;99.90;;;;;;5091006;28;20544;-60
2021/10/13 11:11:45;;;;;;;1.97;0.90;;;11.80;99.90;;;;;;5089350;28;20445;-61
2021/10/13 11:14:15;;;;;;;11.07;1.67;;;12.10;99.90;;;;;;5091383;28;21786;-60
2021/10/13 11:16:55;;;;;;;33.27;4.30;;;12.20;99.90;;;;;;5092749;28;20526;-61
2021/10/13 11:19:43;;;;;;;1.80;0.70;;;12.50;99.90;;;;;;5093692;28;20666;-60
2021/10/13 11:22:15;;;;;;;1.17;0.73;;;13.10;99.90;;;;;;5090056;28;20541;-60
2021/10/13 11:24:51;;;;;;;1.30;0.70;;;13.70;99.90;;;;;;5089379;28;20453;-60
2021/10/13 11:27:26;;;;;;;1.00;0.60;;;13.80;99.90;;;;;;5092154;28;20744;-60
2021/10/13 11:30:23;;;;;;;0.90;0.50;;;13.50;99.90;;;;;;5090627;28;20487;-61
2021/10/13 11:32:54;;;;;;;1.30;0.70;;;13.30;99.90;;;;;;5078065;28;20499;-61
2021/10/13 11:35:29;;;;;;;0.80;0.50;;;13.20;99.90;;;;;;5089991;28;20741;-61
2021/10/13 11:38:03;;;;;;;1.33;0.70;;;13.30;99.90;;;;;;5091178;28;20453;-60
2021/10/13 11:40:42;;;;;;;0.97;0.60;;;13.10;99.90;;;;;;5087763;28;20681;-60
2021/10/13 11:43:13;;;;;;;0.97;0.67;;;12.90;99.90;;;;;;5083090;28;20444;-60
2021/10/13 11:45:53;;;;;;;1.10;0.60;;;12.70;99.90;;;;;;5088169;28;20496;-62
2021/10/13 11:48:30;;;;;;;0.90;0.60;;;12.60;99.90;;;;;;5086977;28;20450;-62
2021/10/13 11:51:00;;;;;;;2.40;0.50;;;12.60;99.90;;;;;;5090894;28;20503;-60
2021/10/13 11:53:40;;;;;;;0.67;0.40;;;12.20;99.90;;;;;;5091819;28;20485;-59
2021/10/13 11:56:19;;;;;;;1.40;0.50;;;12.00;99.90;;;;;;5093189;28;20549;-60
2021/10/13 11:58:50;;;;;;;0.57;0.33;;;12.30;99.90;;;;;;5091153;28;20646;-59
2021/10/13 12:01:17;;;;;;;0.90;0.50;;;12.10;99.90;;;;;;5085115;28;20870;-60
2021/10/13 12:03:51;;;;;;;0.60;0.30;;;12.40;99.90;;;;;;5081015;28;20452;-59
2021/10/13 12:06:18;;;;;;;0.40;0.30;;;12.70;99.90;;;;;;5087804;28;20469;-59
2021/10/13 12:08:51;;;;;;;0.47;0.30;;;12.80;99.90;;;;;;5091592;28;20458;-59
2021/10/13 12:11:26;;;;;;;1.40;0.27;;;12.70;99.90;;;;;;5081220;28;20452;-59
2021/10/13 12:13:57;;;;;;;0.53;0.13;;;12.70;99.90;;;;;;5089104;28;21114;-59
2021/10/13 12:16:31;;;;;;;1.00;0.20;;;12.40;99.90;;;;;;5090062;28;20491;-58
2021/10/13 12:19:11;;;;;;;0.30;0.20;;;12.80;99.90;;;;;;5085925;28;20752;-58
2021/10/13 12:21:39;;;;;;;0.33;0.17;;;13.00;99.90;;;;;;5077574;28;20448;-58
2021/10/13 12:24:10;;;;;;;0.50;0.30;;;13.20;99.90;;;;;;5085544;28;21025;-58
2021/10/13 12:26:49;;;;;;;1.13;0.30;;;13.40;99.90;;;;;;5087318;28;20445;-58
2021/10/13 12:29:21;;;;;;;0.50;0.37;;;13.10;99.90;;;;;;5084208;28;20462;-58
2021/10/13 12:31:50;;;;;;;0.33;0.20;;;13.30;99.90;;;;;;5086120;28;20669;-57
2021/10/13 12:34:20;;;;;;;0.40;0.10;;;13.50;99.90;;;;;;5087920;28;20516;-58
2021/10/13 12:36:52;;;;;;;0.60;0.30;;;13.50;99.90;;;;;;5089794;28;20818;-58
2021/10/13 12:39:24;;;;;;;0.40;0.20;;;13.60;99.90;;;;;;5088875;28;20666;-59
2021/10/13 12:42:08;;;;;;;0.40;0.20;;;13.50;99.90;;;;;;5091554;28;20450;-58
2021/10/13 12:44:37;;;;;;;0.77;0.20;;;13.10;99.90;;;;;;5089491;28;20717;-58
2021/10/13 12:47:10;;;;;;;0.30;0.20;;;13.20;99.90;;;;;;5089632;28;20776;-59
2021/10/13 12:49:40;;;;;;;0.50;0.30;;;13.30;99.90;;;;;;5088301;28;20692;-58
2021/10/13 12:52:09;;;;;;;0.40;0.20;;;13.10;99.90;;;;;;5084110;28;20857;-58
2021/10/13 12:54:38;;;;;;;0.80;0.20;;;13.30;99.90;;;;;;5081414;28;20743;-59
2021/10/13 12:57:11;;;;;;;0.40;0.20;;;13.50;99.90;;;;;;5075933;28;20445;-58
2021/10/13 12:59:39;;;;;;;0.67;0.30;;;13.60;99.90;;;;;;5065334;28;20450;-58
2021/10/13 13:02:06;;;;;;;0.40;0.20;;;13.70;99.90;;;;;;5081960;28;20449;-59
2021/10/13 13:04:36;;;;;;;0.47;0.20;;;13.30;99.90;;;;;;5085811;28;20552;-59
2021/10/13 13:07:08;;;;;;;0.50;0.20;;;13.10;99.90;;;;;;5087829;28;20471;-59
2021/10/13 13:09:42;;;;;;;0.40;0.23;;;13.20;99.90;;;;;;5088798;28;20464;-59
2021/10/13 13:12:12;;;;;;;0.30;0.20;;;13.20;99.90;;;;;;5078259;28;20465;-60
2021/10/13 13:14:39;;;;;;;0.60;0.30;;;12.90;99.90;;;;;;5084994;28;20574;-59
2021/10/13 13:17:07;;;;;;;0.40;0.30;;;13.00;99.90;;;;;;5070289;28;20455;-59